Airfield :
LOGIN :

Register | Disclaimer

   EN    FR    IT 

 










Legend :    VFR   Marginal VFR   IFR   Intensive IFR   Very Intensive IFR
Visi :
Ceiling :
>= 8 km
>= 3000ft
5 to 8 km
1000 to 3000 ft
1500m to 5 km
500 to 1000 ft
800 to 1500m
200 to 500 ft
< 800m
< 200 ft
Symbols :   Thunderstorms  Fog  Heavy snow  Heavy precipitations  Wind > 20 kt
SIGMETs :     Misc.  Thunderstorms  Icing  Turbulence  Mountain Waves  Volcanic Ashes







- Airport Elevation : 5600 ft
- IATA code : SMV


LSZS - Samedan

CURRENT METAR :
  • 252120Z AUTO VRB02KT 9999 NCD 00/M03 Q1018

EXPIRED METARs :
  • 252050Z AUTO VRB01KT 9999 //////TCU 01/M02 Q1019
  • 252020Z AUTO VRB02KT 9999 NCD 00/M02 Q1019
  • 251950Z AUTO VRB01KT 9999 NCD 01/M02 Q1019
  • 251920Z AUTO VRB02KT 9999 FEW050 SCT070 02/M02 Q1019
  • 251850Z AUTO VRB02KT 9999 NCD 03/M02 Q1019

TAF AMD TAF LSZS
Valid from the 25 at 20:00 until the 26 at 00:00 UTC


252036Z 2520/2524 22007KT 9999 FEW070 TX12/2515Z
ATIS : +41 81 834 93 24
No reported NOTAMs for that airfield.
1 SIGMET reported for the Switzerland FIR (LSAS) :
 
Embedded thunderstorms
LSAS SIGMET 2 VALID 252100/260000 LSZH
LSAS SWITZERLAND FIR/UIR EMBD TS OBS WI N4637 E00824 - N4526 E01038 - N4539 E00711 - N4637 E00824 TOP FL300 STNR WKN=



MET'MAP, your aeronautical weather chart ! - Copyright ORBIFLY December 2007 - Disclaimer

ORBIFLY MET'MAP TEAM :

Programming & Development : Alexandra Zaïnal
Concept & Development : Baudouin d'Aumeries
Co-Development & Prog : Marc-Olivier Méhu
Technical & hardware support : Manuel Goepfert

Contact : metmap@orbifly.com




SOURCES & CREDITS :

   NOAA